sensor_id;sensor_type;location;lat;lon;timestamp;P1;durP1;ratioP1;P2;durP2;ratioP2
81725;SDS011;71135;16.738;-14.648;2024-03-25T00:01:37;10.95;;;1.90;;
81725;SDS011;71135;16.738;-14.648;2024-03-25T00:04:04;13.05;;;1.85;;
81725;SDS011;71135;16.738;-14.648;2024-03-25T00:06:30;11.40;;;1.38;;
81725;SDS011;71135;16.738;-14.648;2024-03-25T00:08:57;12.90;;;2.15;;
81725;SDS011;71135;16.738;-14.648;2024-03-25T00:11:26;13.68;;;1.63;;
81725;SDS011;71135;16.738;-14.648;2024-03-25T00:13:53;12.82;;;1.48;;
81725;SDS011;71135;16.738;-14.648;2024-03-25T00:16:19;19.17;;;1.85;;
81725;SDS011;71135;16.738;-14.648;2024-03-25T00:18:51;14.73;;;2.03;;
81725;SDS011;71135;16.738;-14.648;2024-03-25T00:21:17;15.18;;;1.60;;
81725;SDS011;71135;16.738;-14.648;2024-03-25T00:23:46;18.40;;;1.58;;
81725;SDS011;71135;16.738;-14.648;2024-03-25T00:26:12;10.27;;;1.20;;
81725;SDS011;71135;16.738;-14.648;2024-03-25T00:28:42;15.15;;;1.90;;
81725;SDS011;71135;16.738;-14.648;2024-03-25T00:31:08;16.63;;;1.52;;
81725;SDS011;71135;16.738;-14.648;2024-03-25T00:33:35;10.98;;;2.38;;
81725;SDS011;71135;16.738;-14.648;2024-03-25T00:36:01;14.65;;;2.38;;
81725;SDS011;71135;16.738;-14.648;2024-03-25T00:38:30;15.13;;;2.28;;
81725;SDS011;71135;16.738;-14.648;2024-03-25T00:40:57;12.18;;;1.33;;
81725;SDS011;71135;16.738;-14.648;2024-03-25T00:43:23;18.73;;;2.30;;
81725;SDS011;71135;16.738;-14.648;2024-03-25T00:45:52;5.50;;;1.23;;
81725;SDS011;71135;16.738;-14.648;2024-03-25T00:48:19;11.20;;;1.35;;
81725;SDS011;71135;16.738;-14.648;2024-03-25T00:50:45;12.30;;;1.45;;
81725;SDS011;71135;16.738;-14.648;2024-03-25T00:53:14;9.68;;;1.23;;
81725;SDS011;71135;16.738;-14.648;2024-03-25T00:55:40;13.48;;;1.60;;
81725;SDS011;71135;16.738;-14.648;2024-03-25T00:58:07;9.90;;;1.17;;
81725;SDS011;71135;16.738;-14.648;2024-03-25T01:00:33;10.43;;;1.77;;
81725;SDS011;71135;16.738;-14.648;2024-03-25T01:03:06;13.77;;;2.05;;
81725;SDS011;71135;16.738;-14.648;2024-03-25T01:08:14;15.52;;;1.38;;
81725;SDS011;71135;16.738;-14.648;2024-03-25T01:13:51;14.80;;;1.65;;
81725;SDS011;71135;16.738;-14.648;2024-03-25T01:16:17;12.30;;;1.17;;
81725;SDS011;71135;16.738;-14.648;2024-03-25T01:18:46;9.10;;;1.05;;
81725;SDS011;71135;16.738;-14.648;2024-03-25T01:21:13;11.02;;;1.40;;
81725;SDS011;71135;16.738;-14.648;2024-03-25T01:23:39;13.15;;;1.55;;
81725;SDS011;71135;16.738;-14.648;2024-03-25T01:26:06;16.60;;;1.52;;
81725;SDS011;71135;16.738;-14.648;2024-03-25T01:28:33;14.27;;;1.27;;
81725;SDS011;71135;16.738;-14.648;2024-03-25T01:30:59;11.15;;;1.27;;
81725;SDS011;71135;16.738;-14.648;2024-03-25T01:33:26;13.00;;;1.17;;
81725;SDS011;71135;16.738;-14.648;2024-03-25T01:35:55;13.10;;;1.80;;
81725;SDS011;71135;16.738;-14.648;2024-03-25T01:38:21;13.10;;;1.83;;
81725;SDS011;71135;16.738;-14.648;2024-03-25T01:40:51;9.65;;;1.67;;
81725;SDS011;71135;16.738;-14.648;2024-03-25T01:43:18;7.68;;;1.13;;
81725;SDS011;71135;16.738;-14.648;2024-03-25T01:45:47;7.95;;;0.68;;
81725;SDS011;71135;16.738;-14.648;2024-03-25T01:48:14;13.55;;;1.15;;
81725;SDS011;71135;16.738;-14.648;2024-03-25T15:51:43;1.92;;;0.90;;
81725;SDS011;71135;16.738;-14.648;2024-03-25T15:54:11;3.72;;;1.10;;
81725;SDS011;71135;16.738;-14.648;2024-03-25T15:56:38;3.63;;;1.20;;
81725;SDS011;71135;16.738;-14.648;2024-03-25T15:59:08;3.35;;;1.30;;
81725;SDS011;71135;16.738;-14.648;2024-03-25T16:01:34;3.22;;;1.13;;
81725;SDS011;71135;16.738;-14.648;2024-03-25T16:04:01;8.13;;;2.28;;
81725;SDS011;71135;16.738;-14.648;2024-03-25T16:06:28;9.35;;;3.28;;
81725;SDS011;71135;16.738;-14.648;2024-03-25T16:08:57;3.97;;;1.70;;
81725;SDS011;71135;16.738;-14.648;2024-03-25T16:11:24;5.38;;;1.35;;
81725;SDS011;71135;16.738;-14.648;2024-03-25T16:13:51;6.45;;;1.27;;
81725;SDS011;71135;16.738;-14.648;2024-03-25T16:16:18;4.90;;;1.30;;
81725;SDS011;71135;16.738;-14.648;2024-03-25T16:18:44;4.93;;;1.50;;
81725;SDS011;71135;16.738;-14.648;2024-03-25T16:21:13;4.13;;;1.33;;
81725;SDS011;71135;16.738;-14.648;2024-03-25T16:23:40;4.20;;;1.40;;
81725;SDS011;71135;16.738;-14.648;2024-03-25T16:26:10;3.15;;;0.98;;
81725;SDS011;71135;16.738;-14.648;2024-03-25T16:28:37;4.43;;;0.70;;
81725;SDS011;71135;16.738;-14.648;2024-03-25T16:31:04;5.57;;;1.00;;
81725;SDS011;71135;16.738;-14.648;2024-03-25T16:33:31;3.45;;;0.85;;
81725;SDS011;71135;16.738;-14.648;2024-03-25T16:35:58;3.13;;;0.68;;
81725;SDS011;71135;16.738;-14.648;2024-03-25T16:38:24;5.50;;;0.80;;
81725;SDS011;71135;16.738;-14.648;2024-03-25T16:40:51;2.72;;;0.73;;
81725;SDS011;71135;16.738;-14.648;2024-03-25T16:43:20;4.38;;;0.80;;
81725;SDS011;71135;16.738;-14.648;2024-03-25T16:45:50;4.47;;;0.70;;
81725;SDS011;71135;16.738;-14.648;2024-03-25T16:48:16;4.40;;;1.45;;
81725;SDS011;71135;16.738;-14.648;2024-03-25T16:50:45;4.13;;;0.50;;
81725;SDS011;71135;16.738;-14.648;2024-03-25T16:53:12;4.22;;;0.70;;
81725;SDS011;71135;16.738;-14.648;2024-03-25T16:55:38;4.28;;;0.73;;
81725;SDS011;71135;16.738;-14.648;2024-03-25T16:58:05;5.60;;;1.00;;
81725;SDS011;71135;16.738;-14.648;2024-03-25T17:00:35;6.32;;;0.93;;
81725;SDS011;71135;16.738;-14.648;2024-03-25T17:03:04;6.78;;;1.17;;
81725;SDS011;71135;16.738;-14.648;2024-03-25T17:05:31;3.42;;;0.85;;
81725;SDS011;71135;16.738;-14.648;2024-03-25T17:07:59;7.97;;;1.50;;
81725;SDS011;71135;16.738;-14.648;2024-03-25T17:10:25;5.93;;;1.25;;
81725;SDS011;71135;16.738;-14.648;2024-03-25T17:16:14;3.67;;;1.05;;
81725;SDS011;71135;16.738;-14.648;2024-03-25T17:18:41;5.78;;;1.30;;
81725;SDS011;71135;16.738;-14.648;2024-03-25T17:21:08;6.47;;;1.30;;
81725;SDS011;71135;16.738;-14.648;2024-03-25T17:23:34;5.18;;;0.80;;
81725;SDS011;71135;16.738;-14.648;2024-03-25T17:26:04;4.80;;;1.45;;
81725;SDS011;71135;16.738;-14.648;2024-03-25T17:28:31;4.72;;;1.10;;
81725;SDS011;71135;16.738;-14.648;2024-03-25T17:33:30;3.47;;;1.40;;
81725;SDS011;71135;16.738;-14.648;2024-03-25T17:35:57;4.25;;;1.30;;
81725;SDS011;71135;16.738;-14.648;2024-03-25T17:41:52;4.63;;;1.17;;
81725;SDS011;71135;16.738;-14.648;2024-03-25T17:44:18;4.32;;;1.80;;
81725;SDS011;71135;16.738;-14.648;2024-03-25T17:46:45;3.10;;;0.90;;
81725;SDS011;71135;16.738;-14.648;2024-03-25T17:54:59;5.75;;;1.73;;
81725;SDS011;71135;16.738;-14.648;2024-03-25T18:00:17;9.10;;;2.13;;
81725;SDS011;71135;16.738;-14.648;2024-03-25T18:02:44;5.30;;;1.55;;
81725;SDS011;71135;16.738;-14.648;2024-03-25T18:05:10;5.50;;;1.90;;
81725;SDS011;71135;16.738;-14.648;2024-03-25T18:07:40;4.95;;;1.83;;
81725;SDS011;71135;16.738;-14.648;2024-03-25T18:10:07;5.63;;;2.10;;
81725;SDS011;71135;16.738;-14.648;2024-03-25T18:12:33;6.43;;;2.28;;
81725;SDS011;71135;16.738;-14.648;2024-03-25T18:15:00;4.30;;;1.95;;
81725;SDS011;71135;16.738;-14.648;2024-03-25T18:17:27;8.98;;;4.85;;
81725;SDS011;71135;16.738;-14.648;2024-03-25T18:19:54;8.70;;;5.28;;
81725;SDS011;71135;16.738;-14.648;2024-03-25T18:22:20;6.38;;;2.80;;
81725;SDS011;71135;16.738;-14.648;2024-03-25T18:24:50;4.13;;;2.20;;
81725;SDS011;71135;16.738;-14.648;2024-03-25T18:27:19;6.60;;;3.00;;
81725;SDS011;71135;16.738;-14.648;2024-03-25T18:29:46;5.85;;;3.33;;
81725;SDS011;71135;16.738;-14.648;2024-03-25T18:32:12;5.80;;;2.60;;
81725;SDS011;71135;16.738;-14.648;2024-03-25T18:34:39;8.38;;;3.20;;
81725;SDS011;71135;16.738;-14.648;2024-03-25T18:40:27;7.68;;;3.15;;
81725;SDS011;71135;16.738;-14.648;2024-03-25T18:42:54;7.97;;;2.90;;
81725;SDS011;71135;16.738;-14.648;2024-03-25T18:45:20;7.90;;;3.92;;
81725;SDS011;71135;16.738;-14.648;2024-03-25T18:47:47;5.82;;;2.03;;
81725;SDS011;71135;16.738;-14.648;2024-03-25T18:50:14;8.23;;;2.40;;
81725;SDS011;71135;16.738;-14.648;2024-03-25T18:52:41;4.00;;;2.00;;
81725;SDS011;71135;16.738;-14.648;2024-03-25T18:55:08;5.70;;;2.40;;
81725;SDS011;71135;16.738;-14.648;2024-03-25T18:57:37;5.15;;;1.95;;
81725;SDS011;71135;16.738;-14.648;2024-03-25T19:00:04;3.05;;;1.77;;
81725;SDS011;71135;16.738;-14.648;2024-03-25T19:02:32;6.47;;;1.70;;
81725;SDS011;71135;16.738;-14.648;2024-03-25T19:05:02;4.15;;;1.98;;
81725;SDS011;71135;16.738;-14.648;2024-03-25T19:09:56;4.50;;;1.50;;
81725;SDS011;71135;16.738;-14.648;2024-03-25T19:12:24;6.50;;;2.10;;
81725;SDS011;71135;16.738;-14.648;2024-03-25T19:14:53;14.50;;;6.03;;
81725;SDS011;71135;16.738;-14.648;2024-03-25T19:17:20;13.27;;;4.45;;
81725;SDS011;71135;16.738;-14.648;2024-03-25T19:19:47;5.22;;;2.50;;
81725;SDS011;71135;16.738;-14.648;2024-03-25T19:22:13;8.27;;;3.42;;
81725;SDS011;71135;16.738;-14.648;2024-03-25T19:24:40;7.45;;;3.33;;
81725;SDS011;71135;16.738;-14.648;2024-03-25T19:30:15;5.85;;;2.65;;
81725;SDS011;71135;16.738;-14.648;2024-03-25T19:32:41;5.80;;;2.28;;
81725;SDS011;71135;16.738;-14.648;2024-03-25T19:35:08;3.92;;;2.08;;
81725;SDS011;71135;16.738;-14.648;2024-03-25T19:37:36;6.93;;;2.28;;
81725;SDS011;71135;16.738;-14.648;2024-03-25T19:43:16;4.88;;;2.05;;
81725;SDS011;71135;16.738;-14.648;2024-03-25T19:48:30;4.63;;;2.08;;
81725;SDS011;71135;16.738;-14.648;2024-03-25T19:50:57;5.05;;;2.28;;
81725;SDS011;71135;16.738;-14.648;2024-03-25T19:53:24;4.90;;;2.00;;
81725;SDS011;71135;16.738;-14.648;2024-03-25T19:55:56;4.88;;;2.47;;
81725;SDS011;71135;16.738;-14.648;2024-03-25T19:58:23;8.98;;;2.03;;
81725;SDS011;71135;16.738;-14.648;2024-03-25T20:00:53;3.88;;;1.70;;
81725;SDS011;71135;16.738;-14.648;2024-03-25T20:03:23;4.72;;;1.42;;
81725;SDS011;71135;16.738;-14.648;2024-03-25T20:05:52;8.32;;;2.60;;
81725;SDS011;71135;16.738;-14.648;2024-03-25T20:08:19;11.30;;;2.30;;
81725;SDS011;71135;16.738;-14.648;2024-03-25T20:10:49;6.85;;;2.28;;
81725;SDS011;71135;16.738;-14.648;2024-03-25T20:13:16;5.65;;;2.10;;
81725;SDS011;71135;16.738;-14.648;2024-03-25T20:15:42;5.95;;;1.92;;
81725;SDS011;71135;16.738;-14.648;2024-03-25T20:18:09;8.25;;;2.33;;
81725;SDS011;71135;16.738;-14.648;2024-03-25T20:20:38;15.13;;;4.57;;
81725;SDS011;71135;16.738;-14.648;2024-03-25T20:23:05;15.13;;;4.50;;
81725;SDS011;71135;16.738;-14.648;2024-03-25T20:25:32;15.82;;;5.90;;
81725;SDS011;71135;16.738;-14.648;2024-03-25T20:27:59;21.00;;;6.95;;
81725;SDS011;71135;16.738;-14.648;2024-03-25T20:30:26;16.23;;;5.68;;
81725;SDS011;71135;16.738;-14.648;2024-03-25T20:32:53;11.80;;;4.28;;
81725;SDS011;71135;16.738;-14.648;2024-03-25T20:35:19;6.40;;;2.80;;
81725;SDS011;71135;16.738;-14.648;2024-03-25T20:37:49;8.95;;;2.67;;
81725;SDS011;71135;16.738;-14.648;2024-03-25T20:40:15;9.20;;;2.78;;
81725;SDS011;71135;16.738;-14.648;2024-03-25T20:42:45;7.95;;;2.30;;
81725;SDS011;71135;16.738;-14.648;2024-03-25T20:45:12;5.78;;;1.80;;
81725;SDS011;71135;16.738;-14.648;2024-03-25T20:47:39;6.30;;;2.15;;
81725;SDS011;71135;16.738;-14.648;2024-03-25T20:50:08;5.55;;;1.92;;
81725;SDS011;71135;16.738;-14.648;2024-03-25T20:52:35;6.28;;;1.55;;
81725;SDS011;71135;16.738;-14.648;2024-03-25T20:55:05;4.03;;;1.75;;
81725;SDS011;71135;16.738;-14.648;2024-03-25T20:57:32;6.05;;;1.80;;
81725;SDS011;71135;16.738;-14.648;2024-03-25T20:59:59;6.80;;;2.10;;
81725;SDS011;71135;16.738;-14.648;2024-03-25T21:02:25;5.80;;;2.22;;
81725;SDS011;71135;16.738;-14.648;2024-03-25T21:04:52;6.35;;;2.38;;
81725;SDS011;71135;16.738;-14.648;2024-03-25T21:07:19;5.15;;;1.60;;
81725;SDS011;71135;16.738;-14.648;2024-03-25T21:09:45;5.00;;;1.73;;
81725;SDS011;71135;16.738;-14.648;2024-03-25T21:12:15;8.10;;;2.20;;
81725;SDS011;71135;16.738;-14.648;2024-03-25T21:14:41;5.43;;;2.10;;
81725;SDS011;71135;16.738;-14.648;2024-03-25T21:17:08;5.03;;;2.20;;
81725;SDS011;71135;16.738;-14.648;2024-03-25T21:19:35;5.55;;;2.00;;
81725;SDS011;71135;16.738;-14.648;2024-03-25T21:22:04;6.88;;;1.90;;
81725;SDS011;71135;16.738;-14.648;2024-03-25T21:24:31;5.75;;;2.00;;
81725;SDS011;71135;16.738;-14.648;2024-03-25T21:26:58;5.20;;;1.67;;
81725;SDS011;71135;16.738;-14.648;2024-03-25T21:32:53;7.88;;;2.08;;
81725;SDS011;71135;16.738;-14.648;2024-03-25T21:35:26;5.10;;;1.95;;
81725;SDS011;71135;16.738;-14.648;2024-03-25T21:37:56;5.68;;;1.70;;
81725;SDS011;71135;16.738;-14.648;2024-03-25T21:43:52;5.80;;;1.65;;
81725;SDS011;71135;16.738;-14.648;2024-03-25T21:50:05;5.07;;;2.20;;
81725;SDS011;71135;16.738;-14.648;2024-03-25T21:52:32;8.40;;;2.17;;
81725;SDS011;71135;16.738;-14.648;2024-03-25T21:54:59;6.65;;;2.65;;
81725;SDS011;71135;16.738;-14.648;2024-03-25T21:57:26;4.50;;;2.17;;
81725;SDS011;71135;16.738;-14.648;2024-03-25T21:59:58;5.80;;;2.47;;
81725;SDS011;71135;16.738;-14.648;2024-03-25T22:02:32;6.82;;;3.17;;
81725;SDS011;71135;16.738;-14.648;2024-03-25T22:04:58;7.25;;;2.65;;
81725;SDS011;71135;16.738;-14.648;2024-03-25T22:07:27;6.07;;;2.72;;
81725;SDS011;71135;16.738;-14.648;2024-03-25T22:09:54;7.25;;;2.75;;
81725;SDS011;71135;16.738;-14.648;2024-03-25T22:12:21;8.02;;;2.28;;
81725;SDS011;71135;16.738;-14.648;2024-03-25T22:14:53;6.65;;;2.67;;
81725;SDS011;71135;16.738;-14.648;2024-03-25T22:17:19;3.75;;;2.22;;
81725;SDS011;71135;16.738;-14.648;2024-03-25T22:19:46;4.05;;;2.42;;
81725;SDS011;71135;16.738;-14.648;2024-03-25T22:22:15;3.80;;;2.38;;
81725;SDS011;71135;16.738;-14.648;2024-03-25T22:24:45;6.47;;;2.85;;
81725;SDS011;71135;16.738;-14.648;2024-03-25T22:36:51;4.65;;;2.63;;
81725;SDS011;71135;16.738;-14.648;2024-03-25T22:39:18;7.20;;;3.00;;
81725;SDS011;71135;16.738;-14.648;2024-03-25T22:41:47;4.78;;;2.40;;
81725;SDS011;71135;16.738;-14.648;2024-03-25T22:44:14;4.88;;;2.38;;
81725;SDS011;71135;16.738;-14.648;2024-03-25T22:46:40;9.15;;;2.75;;
81725;SDS011;71135;16.738;-14.648;2024-03-25T22:49:07;8.55;;;2.33;;
81725;SDS011;71135;16.738;-14.648;2024-03-25T23:01:40;5.72;;;2.50;;
